Time;durP1;ratioP1;P1;durP2;ratioP2;P2;SDS_P1;SDS_P2;PMS_P1;PMS_P2;Temp;Humidity;BMP_temperature;BMP_pressure;BME280_temperature;BME280_humidity;BME280_pressure;Samples;Min_cycle;Max_cycle;Signal;HPM_P1;HPM_P2
2022/01/13 00:02:23;;;;;;;5.68;3.38;;;18.10;52.30;;;;;;5039897;28;20533;-56
2022/01/13 00:04:50;;;;;;;5.43;3.05;;;18.10;52.20;;;;;;5036693;28;20037;-55
2022/01/13 00:07:18;;;;;;;6.90;2.08;;;18.30;52.10;;;;;;5034052;28;20635;-56
2022/01/13 00:09:45;;;;;;;5.32;2.63;;;18.40;52.00;;;;;;5037505;28;20048;-56
2022/01/13 00:12:13;;;;;;;3.80;1.90;;;18.50;51.90;;;;;;5042657;28;20048;-55
2022/01/13 00:14:55;;;;;;;5.13;2.45;;;18.50;51.80;;;;;;5041925;28;20086;-56
2022/01/13 00:17:45;;;;;;;3.72;2.40;;;18.60;51.70;;;;;;5041795;28;20041;-51
2022/01/13 00:20:30;;;;;;;4.78;2.35;;;18.80;51.60;;;;;;5040680;28;20056;-55
2022/01/13 00:25:43;;;;;;;4.15;1.75;;;18.90;51.40;;;;;;5044896;28;20044;-55
2022/01/13 00:28:16;;;;;;;2.55;1.80;;;19.00;51.30;;;;;;5084330;28;20032;-58
2022/01/13 00:30:44;;;;;;;3.55;1.48;;;19.10;51.20;;;;;;5085577;28;20079;-52
2022/01/13 00:33:13;;;;;;;4.05;1.48;;;19.10;51.00;;;;;;5087849;28;20130;-56
2022/01/13 00:35:40;;;;;;;7.35;2.85;;;19.20;51.00;;;;;;5085694;28;20028;-58
2022/01/13 00:38:08;;;;;;;3.88;1.65;;;19.30;50.90;;;;;;5085154;28;20036;-58
2022/01/13 00:40:36;;;;;;;2.95;1.40;;;19.40;51.10;;;;;;5085889;28;20051;-54
2022/01/13 00:43:03;;;;;;;2.30;1.15;;;19.40;50.70;;;;;;5084546;28;20504;-56
2022/01/13 00:45:30;;;;;;;1.98;1.67;;;19.50;50.60;;;;;;5089572;28;20048;-57
2022/01/13 00:47:57;;;;;;;1.73;1.33;;;19.60;50.50;;;;;;5083928;28;20591;-56
2022/01/13 00:50:24;;;;;;;5.38;2.75;;;19.60;50.40;;;;;;5084029;28;20539;-54
2022/01/13 00:52:51;;;;;;;3.83;2.00;;;19.70;50.30;;;;;;5086728;28;20040;-56
2022/01/13 00:55:22;;;;;;;2.88;1.50;;;19.80;50.30;;;;;;5089618;28;20080;-56
2022/01/13 00:57:49;;;;;;;3.53;1.55;;;19.80;50.20;;;;;;5082620;28;20086;-56
2022/01/13 01:00:17;;;;;;;2.40;1.67;;;19.90;50.10;;;;;;5084839;28;20043;-56
2022/01/13 01:02:44;;;;;;;4.03;1.88;;;19.90;50.00;;;;;;5090007;28;20048;-57
2022/01/13 01:05:11;;;;;;;2.45;1.13;;;20.00;50.00;;;;;;5066362;28;20048;-53
2022/01/13 01:07:39;;;;;;;2.75;2.00;;;20.00;50.40;;;;;;5086566;28;20044;-55
2022/01/13 01:10:07;;;;;;;2.05;1.45;;;20.10;49.80;;;;;;5084519;28;20036;-53
2022/01/13 01:12:38;;;;;;;1.88;1.42;;;20.10;49.70;;;;;;5083952;28;20524;-52
2022/01/13 01:15:07;;;;;;;2.40;1.15;;;20.20;49.70;;;;;;5083349;28;20500;-55
2022/01/13 01:17:41;;;;;;;2.63;1.42;;;20.20;49.60;;;;;;5086526;28;20109;-54
2022/01/13 01:20:09;;;;;;;2.38;1.70;;;20.30;50.20;;;;;;5085428;28;20137;-56
2022/01/13 01:22:57;;;;;;;1.45;1.35;;;20.30;49.50;;;;;;5085937;28;20507;-54
2022/01/13 01:25:43;;;;;;;3.83;1.13;;;20.40;49.60;;;;;;5083936;28;20186;-54
2022/01/13 01:28:18;;;;;;;0.98;0.98;;;20.50;49.50;;;;;;5086367;28;20531;-54
2022/01/13 01:30:48;;;;;;;7.53;1.15;;;20.50;49.40;;;;;;5084678;28;20054;-54
2022/01/13 01:33:18;;;;;;;3.08;1.73;;;20.40;49.40;;;;;;5084767;28;20032;-54
2022/01/13 01:35:45;;;;;;;2.15;1.25;;;20.40;49.60;;;;;;5084167;28;20565;-56
2022/01/13 01:38:12;;;;;;;1.80;1.38;;;20.40;49.70;;;;;;5085071;28;20612;-58
2022/01/13 01:40:39;;;;;;;1.27;1.17;;;20.30;49.80;;;;;;5085887;28;20040;-58
2022/01/13 01:43:06;;;;;;;2.13;1.60;;;20.30;49.90;;;;;;5084753;28;20036;-56
2022/01/13 01:45:43;;;;;;;2.15;1.50;;;20.20;50.00;;;;;;5084497;28;20040;-56
2022/01/13 01:48:11;;;;;;;3.13;1.40;;;20.20;50.10;;;;;;5079826;28;20067;-56
2022/01/13 01:50:38;;;;;;;3.15;1.52;;;20.10;50.20;;;;;;5084142;28;20068;-56
2022/01/13 01:53:06;;;;;;;1.10;1.00;;;20.00;50.20;;;;;;5087299;28;20507;-56
2022/01/13 01:55:33;;;;;;;1.92;1.80;;;20.00;50.30;;;;;;5085095;28;20236;-58
2022/01/13 01:58:02;;;;;;;2.42;1.30;;;19.90;50.30;;;;;;5070619;28;20052;-55
2022/01/13 02:00:29;;;;;;;3.20;1.20;;;19.90;50.40;;;;;;5070339;28;20067;-56
2022/01/13 02:02:58;;;;;;;1.88;1.27;;;19.90;50.50;;;;;;5086879;28;20307;-54
2022/01/13 02:05:25;;;;;;;3.30;2.13;;;19.80;50.50;;;;;;5084221;28;20366;-53
2022/01/13 02:07:53;;;;;;;1.38;1.05;;;19.80;50.60;;;;;;5089033;28;20048;-55
2022/01/13 02:10:20;;;;;;;2.25;1.98;;;19.80;50.70;;;;;;5088558;28;20574;-56
2022/01/13 02:12:51;;;;;;;1.58;1.40;;;19.80;50.90;;;;;;5087943;28;20102;-54
2022/01/13 02:15:33;;;;;;;2.90;1.20;;;19.70;50.90;;;;;;5088379;28;20458;-54
2022/01/13 02:18:06;;;;;;;1.23;1.13;;;19.70;51.00;;;;;;5069904;28;20044;-56
2022/01/13 02:20:50;;;;;;;1.98;1.40;;;19.60;51.00;;;;;;5086316;28;20058;-52
2022/01/13 02:23:36;;;;;;;2.88;1.45;;;19.60;51.10;;;;;;5086745;28;20048;-52
2022/01/13 02:26:04;;;;;;;2.13;1.07;;;19.60;51.20;;;;;;5067893;28;20044;-53
2022/01/13 02:28:31;;;;;;;2.47;1.38;;;19.50;51.30;;;;;;5088598;28;20405;-55
2022/01/13 02:30:59;;;;;;;1.42;1.33;;;19.50;51.40;;;;;;5087889;28;20505;-55
2022/01/13 02:33:26;;;;;;;1.80;1.00;;;19.50;51.50;;;;;;5087370;28;20040;-55
2022/01/13 02:35:55;;;;;;;1.05;0.80;;;19.40;51.50;;;;;;5087913;28;20523;-57
2022/01/13 02:38:22;;;;;;;1.30;1.23;;;19.40;51.60;;;;;;5087070;28;20036;-56
2022/01/13 02:40:54;;;;;;;2.42;1.42;;;19.40;51.60;;;;;;5089348;28;20046;-52
2022/01/13 02:43:21;;;;;;;1.35;1.08;;;19.40;51.70;;;;;;5086607;28;20412;-54
2022/01/13 02:46:04;;;;;;;2.25;1.30;;;19.40;52.40;;;;;;5085237;28;20428;-56
2022/01/13 02:48:32;;;;;;;4.95;1.23;;;19.40;51.80;;;;;;5086441;28;20040;-54
2022/01/13 02:51:02;;;;;;;3.47;1.58;;;19.40;51.90;;;;;;5087829;28;20480;-58
2022/01/13 02:53:29;;;;;;;1.13;1.02;;;19.30;51.90;;;;;;5087945;28;20078;-56
2022/01/13 02:56:04;;;;;;;2.85;1.55;;;19.30;51.90;;;;;;5089391;28;20040;-57
2022/01/13 02:58:32;;;;;;;1.75;1.23;;;19.30;51.90;;;;;;5088368;28;20085;-56
2022/01/13 03:00:59;;;;;;;1.65;1.08;;;19.30;51.90;;;;;;5086971;28;20504;-54
2022/01/13 03:03:26;;;;;;;1.67;1.25;;;19.20;51.80;;;;;;5086887;28;20046;-55
2022/01/13 03:05:53;;;;;;;1.58;0.55;;;19.20;51.80;;;;;;5087631;28;20222;-56
2022/01/13 03:08:22;;;;;;;1.90;0.70;;;19.20;51.80;;;;;;5087019;28;20141;-56
2022/01/13 03:10:49;;;;;;;2.33;1.05;;;19.20;51.80;;;;;;5089141;28;20040;-53
2022/01/13 03:13:17;;;;;;;1.77;1.27;;;19.20;51.80;;;;;;5087062;28;20048;-56
2022/01/13 03:15:45;;;;;;;0.80;0.80;;;19.20;51.80;;;;;;5086952;28;20040;-57
2022/01/13 03:18:12;;;;;;;1.80;0.80;;;19.10;51.80;;;;;;5084126;28;20036;-54
2022/01/13 03:20:38;;;;;;;5.68;0.82;;;19.10;51.90;;;;;;5093206;28;20047;-55
2022/01/13 03:23:06;;;;;;;1.00;0.60;;;19.10;51.90;;;;;;5090253;28;20044;-56
2022/01/13 03:25:34;;;;;;;2.28;0.88;;;19.10;51.90;;;;;;5071771;28;20036;-53
2022/01/13 03:28:07;;;;;;;1.20;0.70;;;19.10;51.90;;;;;;5072891;28;20416;-56
2022/01/13 03:30:34;;;;;;;1.52;0.85;;;19.00;51.80;;;;;;5086768;28;20052;-53
2022/01/13 03:33:02;;;;;;;1.17;0.70;;;19.00;51.80;;;;;;5086920;28;20032;-54
2022/01/13 03:35:29;;;;;;;0.90;0.60;;;19.00;51.80;;;;;;5086968;28;20048;-56
2022/01/13 03:37:58;;;;;;;1.05;0.80;;;19.00;51.80;;;;;;5093869;28;20047;-55
2022/01/13 03:40:26;;;;;;;0.73;0.40;;;19.00;51.90;;;;;;5083864;28;20113;-55
2022/01/13 03:42:54;;;;;;;0.85;0.38;;;19.00;51.80;;;;;;5086023;28;20105;-55
2022/01/13 03:45:21;;;;;;;0.50;0.43;;;19.00;51.80;;;;;;5086228;28;20123;-55
2022/01/13 03:47:48;;;;;;;0.85;0.52;;;18.90;51.80;;;;;;5086492;28;20500;-55
2022/01/13 03:50:16;;;;;;;1.33;0.82;;;18.90;51.80;;;;;;5086757;28;20039;-55
2022/01/13 03:53:22;;;;;;;1.42;0.57;;;18.90;51.80;;;;;;5087846;28;20044;-55
2022/01/13 03:56:52;;;;;;;1.23;0.43;;;18.90;51.70;;;;;;5086473;28;20044;-55
2022/01/13 03:59:56;;;;;;;0.50;0.45;;;18.90;51.70;;;;;;5084262;28;20476;-53
2022/01/13 04:02:23;;;;;;;1.00;0.50;;;18.80;51.80;;;;;;5089418;28;20845;-50
2022/01/13 04:04:50;;;;;;;0.93;0.30;;;18.80;51.80;;;;;;5087945;28;20525;-54
2022/01/13 04:07:20;;;;;;;1.75;0.60;;;18.80;51.80;;;;;;5084926;28;20044;-52
2022/01/13 04:10:29;;;;;;;0.65;0.38;;;18.80;51.70;;;;;;5069888;28;20071;-53
2022/01/13 04:12:57;;;;;;;1.30;0.55;;;18.80;51.70;;;;;;5085722;28;20159;-54
2022/01/13 04:15:28;;;;;;;0.95;0.75;;;18.70;51.70;;;;;;5084080;28;20032;-53
2022/01/13 04:17:56;;;;;;;0.77;0.60;;;18.70;51.70;;;;;;5084112;28;20048;-55
2022/01/13 04:20:23;;;;;;;0.50;0.30;;;18.70;51.70;;;;;;5085004;28;20508;-56
2022/01/13 04:22:51;;;;;;;1.90;0.40;;;18.70;51.70;;;;;;5086319;28;20049;-55
2022/01/13 04:25:21;;;;;;;2.75;0.32;;;18.70;51.70;;;;;;5082621;28;20039;-55
2022/01/13 04:27:50;;;;;;;0.43;0.25;;;18.70;51.70;;;;;;5079428;28;20040;-55
2022/01/13 04:30:34;;;;;;;0.40;0.40;;;18.60;51.60;;;;;;5083515;28;20044;-54
2022/01/13 04:33:04;;;;;;;0.30;0.30;;;18.60;51.60;;;;;;5085401;28;20055;-53
2022/01/13 04:35:31;;;;;;;1.27;0.50;;;18.60;51.60;;;;;;5085773;28;20136;-55
2022/01/13 04:37:59;;;;;;;0.88;0.50;;;18.60;51.60;;;;;;5087342;28;20039;-55
2022/01/13 04:40:26;;;;;;;0.60;0.32;;;18.60;51.60;;;;;;5083409;28;20131;-55
2022/01/13 04:42:55;;;;;;;0.28;0.20;;;18.60;51.60;;;;;;5085884;28;20043;-53
2022/01/13 04:45:24;;;;;;;0.57;0.32;;;18.60;51.60;;;;;;5085381;28;20130;-52
2022/01/13 04:47:53;;;;;;;0.90;0.80;;;18.50;51.50;;;;;;5085429;28;20051;-55
2022/01/13 04:50:23;;;;;;;0.77;0.73;;;18.50;51.50;;;;;;5085434;28;20062;-52
2022/01/13 04:52:50;;;;;;;0.50;0.40;;;18.50;51.50;;;;;;5086541;28;20048;-53
2022/01/13 04:55:23;;;;;;;0.90;0.50;;;18.50;51.50;;;;;;5085345;28;20048;-48
2022/01/13 04:57:50;;;;;;;0.30;0.30;;;18.50;51.50;;;;;;5087218;28;20090;-52
2022/01/13 05:00:18;;;;;;;0.35;0.20;;;18.50;51.60;;;;;;5084979;28;20059;-52
2022/01/13 05:02:45;;;;;;;0.43;0.20;;;18.50;51.60;;;;;;5085769;28;20131;-55
2022/01/13 05:05:12;;;;;;;0.60;0.20;;;18.40;51.60;;;;;;5084685;28;20043;-56
2022/01/13 05:07:41;;;;;;;0.40;0.32;;;18.40;51.50;;;;;;5086417;28;20048;-57
2022/01/13 05:10:10;;;;;;;0.38;0.30;;;18.40;51.60;;;;;;5070180;28;20055;-57
2022/01/13 05:12:41;;;;;;;0.43;0.32;;;18.40;51.60;;;;;;5084667;28;20058;-55
2022/01/13 05:15:15;;;;;;;0.30;0.30;;;18.40;51.60;;;;;;5084830;28;20036;-56
2022/01/13 05:20:36;;;;;;;1.13;0.20;;;18.40;51.60;;;;;;5084200;28;20056;-55
2022/01/13 05:23:06;;;;;;;1.40;0.30;;;18.30;51.60;;;;;;5083906;28;20081;-56
2022/01/13 05:25:33;;;;;;;0.52;0.40;;;18.40;51.70;;;;;;5085773;28;20055;-56
2022/01/13 05:28:00;;;;;;;0.32;0.20;;;18.30;51.60;;;;;;5084160;28;20054;-54
2022/01/13 05:30:27;;;;;;;1.52;0.38;;;18.30;51.60;;;;;;5084494;28;20052;-54
2022/01/13 05:32:56;;;;;;;1.10;0.20;;;18.30;51.60;;;;;;5084485;28;20424;-52
2022/01/13 05:35:24;;;;;;;0.30;0.20;;;18.30;51.60;;;;;;5084661;28;20054;-53
2022/01/13 05:37:52;;;;;;;1.27;0.50;;;18.30;51.70;;;;;;5086160;28;20093;-53
2022/01/13 05:40:21;;;;;;;0.32;0.20;;;18.30;51.70;;;;;;5083482;28;20047;-51
2022/01/13 05:42:48;;;;;;;0.50;0.20;;;18.30;51.70;;;;;;5084110;28;20047;-52
2022/01/13 05:45:17;;;;;;;1.65;0.45;;;18.30;51.70;;;;;;5087820;28;20419;-50
2022/01/13 05:47:45;;;;;;;0.40;0.20;;;18.30;51.70;;;;;;5084980;28;20679;-55
2022/01/13 05:50:13;;;;;;;0.55;0.20;;;18.20;51.60;;;;;;5084681;28;20334;-50
2022/01/13 05:52:40;;;;;;;0.30;0.20;;;18.20;51.60;;;;;;5086026;28;20408;-56
2022/01/13 05:55:09;;;;;;;0.40;0.30;;;18.20;51.60;;;;;;5083798;28;20044;-53
2022/01/13 05:57:37;;;;;;;0.30;0.20;;;18.20;51.60;;;;;;5083924;28;20036;-49
2022/01/13 06:00:06;;;;;;;0.70;0.22;;;18.20;51.70;;;;;;5084154;28;20036;-52
2022/01/13 06:02:38;;;;;;;0.22;0.20;;;18.20;51.70;;;;;;5087290;28;20067;-53
2022/01/13 06:05:07;;;;;;;0.60;0.30;;;18.20;52.30;;;;;;5085532;28;20044;-53
2022/01/13 06:07:34;;;;;;;0.32;0.30;;;18.20;51.80;;;;;;5085245;28;20040;-52
2022/01/13 06:10:01;;;;;;;0.20;0.20;;;18.20;51.80;;;;;;5083758;28;20125;-53
2022/01/13 06:12:34;;;;;;;0.40;0.30;;;18.10;51.70;;;;;;5082588;28;20046;-54
2022/01/13 06:15:05;;;;;;;0.28;0.20;;;18.10;51.80;;;;;;5082236;28;20570;-54
2022/01/13 06:17:32;;;;;;;0.98;0.22;;;18.10;51.80;;;;;;5083889;28;20036;-51
2022/01/13 06:19:59;;;;;;;0.50;0.20;;;18.10;51.80;;;;;;5085606;28;20044;-51
2022/01/13 06:22:27;;;;;;;0.28;0.15;;;18.10;51.80;;;;;;5083340;28;20047;-55
2022/01/13 06:24:54;;;;;;;0.30;0.30;;;18.10;51.80;;;;;;5083493;28;20051;-53
2022/01/13 06:27:23;;;;;;;0.85;0.32;;;18.10;51.80;;;;;;5083731;28;20050;-51
2022/01/13 06:29:51;;;;;;;0.55;0.32;;;18.10;51.80;;;;;;5083128;28;20036;-55
2022/01/13 06:32:21;;;;;;;0.70;0.40;;;18.10;51.90;;;;;;5084452;28;20036;-54
2022/01/13 06:34:48;;;;;;;0.63;0.30;;;18.10;51.80;;;;;;5083857;28;20128;-56
2022/01/13 06:37:15;;;;;;;0.30;0.30;;;18.10;51.80;;;;;;5083438;28;20044;-55
2022/01/13 06:39:43;;;;;;;0.50;0.20;;;18.10;51.90;;;;;;5083191;28;20035;-58
2022/01/13 06:42:10;;;;;;;0.57;0.10;;;18.10;51.80;;;;;;5083167;28;20040;-56
2022/01/13 06:44:38;;;;;;;0.20;0.20;;;18.10;51.80;;;;;;5084228;28;20051;-55
2022/01/13 06:47:06;;;;;;;0.50;0.20;;;18.10;52.10;;;;;;5077764;28;20051;-56
2022/01/13 06:49:35;;;;;;;1.38;0.28;;;18.10;52.20;;;;;;5084939;28;20558;-63
2022/01/13 06:52:02;;;;;;;1.17;0.20;;;18.10;52.40;;;;;;5083369;28;20500;-61
2022/01/13 06:54:30;;;;;;;0.20;0.17;;;18.10;52.60;;;;;;5085577;28;20050;-61
2022/01/13 06:56:57;;;;;;;0.52;0.35;;;18.20;52.70;;;;;;5085725;28;20105;-61
2022/01/13 06:59:24;;;;;;;0.38;0.20;;;18.30;52.80;;;;;;5084465;28;20074;-58
2022/01/13 07:01:51;;;;;;;1.25;0.20;;;18.40;52.80;;;;;;5077845;28;20054;-58
2022/01/13 07:04:19;;;;;;;0.20;0.20;;;18.60;52.80;;;;;;5086231;28;20047;-60
2022/01/13 07:06:47;;;;;;;1.30;0.10;;;18.70;52.70;;;;;;5088445;28;20587;-59
2022/01/13 07:09:17;;;;;;;0.85;0.20;;;18.80;52.60;;;;;;5086464;28;20078;-60
2022/01/13 07:11:44;;;;;;;0.25;0.20;;;18.90;52.60;;;;;;5086466;28;20058;-59
2022/01/13 07:14:13;;;;;;;0.43;0.17;;;19.00;52.40;;;;;;5086400;28;20572;-60
2022/01/13 07:16:41;;;;;;;0.20;0.10;;;19.10;52.30;;;;;;5068824;28;20035;-59
2022/01/13 07:19:11;;;;;;;1.10;0.13;;;19.20;52.20;;;;;;5082896;28;20052;-55
2022/01/13 07:21:40;;;;;;;3.78;0.20;;;19.30;52.20;;;;;;5082800;28;20063;-63
2022/01/13 07:24:09;;;;;;;4.03;0.40;;;19.40;52.30;;;;;;5087398;28;20788;-63
2022/01/13 07:26:36;;;;;;;7.30;0.35;;;19.40;52.30;;;;;;5087343;28;20027;-63
2022/01/13 07:29:05;;;;;;;5.25;1.05;;;19.50;52.20;;;;;;5085125;28;20044;-63
2022/01/13 07:31:32;;;;;;;20.52;0.95;;;19.60;52.70;;;;;;5087775;28;20090;-63
2022/01/13 07:33:59;;;;;;;4.00;0.60;;;19.70;52.00;;;;;;5086242;28;20053;-63
2022/01/13 07:36:27;;;;;;;4.78;0.82;;;19.70;51.90;;;;;;5086470;28;20119;-63
2022/01/13 07:38:54;;;;;;;7.25;2.17;;;19.70;52.80;;;;;;5090578;28;20037;-64
2022/01/13 07:41:22;;;;;;;4.70;0.65;;;19.70;54.70;;;;;;5090449;28;20044;-64
2022/01/13 07:43:54;;;;;;;7.22;0.50;;;19.80;55.90;;;;;;5088478;28;20093;-64
2022/01/13 07:46:21;;;;;;;8.57;1.58;;;19.70;56.80;;;;;;5086292;28;20040;-65
2022/01/13 07:48:49;;;;;;;6.07;0.32;;;19.70;57.50;;;;;;5069764;28;20060;-63
2022/01/13 07:51:16;;;;;;;4.93;0.43;;;19.70;57.80;;;;;;5086450;28;20064;-64
2022/01/13 07:53:43;;;;;;;2.90;0.88;;;19.60;57.80;;;;;;5085952;28;20052;-66
2022/01/13 07:56:11;;;;;;;6.95;0.20;;;19.60;57.70;;;;;;5086982;28;20032;-63
2022/01/13 07:58:40;;;;;;;3.33;0.68;;;19.50;58.20;;;;;;5086747;28;20040;-65
2022/01/13 08:01:08;;;;;;;2.47;0.88;;;19.50;57.60;;;;;;5086840;28;20046;-66
2022/01/13 08:03:35;;;;;;;3.05;0.32;;;19.40;57.40;;;;;;5086605;28;20523;-63
2022/01/13 08:06:04;;;;;;;7.35;0.75;;;19.40;57.30;;;;;;5085342;28;20043;-63
2022/01/13 08:08:32;;;;;;;2.55;0.60;;;19.40;57.20;;;;;;5086067;28;27388;-64
2022/01/13 08:10:59;;;;;;;1.77;0.28;;;19.40;57.20;;;;;;5087379;28;20064;-65
2022/01/13 08:13:26;;;;;;;1.58;0.73;;;19.30;57.00;;;;;;5084462;28;20035;-65
2022/01/13 08:15:55;;;;;;;3.67;0.63;;;19.30;56.90;;;;;;5086155;28;20388;-64
2022/01/13 08:21:07;;;;;;;3.53;1.38;;;19.20;56.70;;;;;;5085930;28;20040;-64
2022/01/13 08:23:35;;;;;;;3.83;1.25;;;19.10;56.60;;;;;;5089822;28;20036;-63
2022/01/13 08:26:02;;;;;;;5.30;0.75;;;19.10;56.60;;;;;;5087682;28;20454;-64
2022/01/13 08:28:30;;;;;;;3.08;0.90;;;19.10;56.60;;;;;;5085894;28;20044;-64
2022/01/13 08:30:59;;;;;;;7.00;1.08;;;19.10;56.50;;;;;;5088927;28;20911;-64
2022/01/13 08:33:26;;;;;;;3.22;0.57;;;19.00;56.40;;;;;;5079116;28;20127;-63
2022/01/13 08:35:55;;;;;;;1.85;0.40;;;19.00;56.40;;;;;;5078363;28;20226;-64
2022/01/13 08:38:24;;;;;;;2.88;0.43;;;19.00;56.40;;;;;;5084271;28;20048;-64
2022/01/13 08:40:54;;;;;;;5.60;0.77;;;18.90;56.30;;;;;;5085841;28;20040;-64
2022/01/13 08:43:22;;;;;;;5.25;0.88;;;18.90;56.20;;;;;;5085602;28;20062;-64
2022/01/13 08:45:49;;;;;;;2.72;0.55;;;18.90;56.10;;;;;;5085395;28;20040;-64
2022/01/13 08:48:18;;;;;;;5.75;0.90;;;18.90;56.10;;;;;;5085666;28;20047;-64
2022/01/13 08:50:46;;;;;;;3.45;1.10;;;18.80;56.00;;;;;;5084280;28;20042;-67
2022/01/13 08:53:14;;;;;;;5.55;1.25;;;18.80;56.00;;;;;;5086066;28;20040;-66
2022/01/13 08:55:42;;;;;;;2.63;0.47;;;18.70;55.80;;;;;;5086604;28;20058;-66
2022/01/13 08:58:09;;;;;;;4.30;0.65;;;18.80;55.80;;;;;;5085068;28;20415;-65
2022/01/13 09:00:37;;;;;;;2.95;0.82;;;18.70;55.60;;;;;;5085379;28;20036;-66
2022/01/13 09:03:07;;;;;;;6.05;0.93;;;18.70;55.60;;;;;;5091005;28;20047;-66
2022/01/13 09:05:38;;;;;;;7.90;1.17;;;18.70;55.60;;;;;;5080085;28;20064;-66
2022/01/13 09:08:06;;;;;;;9.75;0.60;;;18.70;55.50;;;;;;5082879;28;20048;-62
2022/01/13 09:10:34;;;;;;;2.90;0.88;;;18.60;55.40;;;;;;5085544;28;20040;-66
2022/01/13 09:13:01;;;;;;;3.65;0.47;;;18.60;55.40;;;;;;5084970;28;20048;-66
2022/01/13 09:15:35;;;;;;;6.97;0.43;;;18.60;55.40;;;;;;5085224;28;20047;-66
2022/01/13 09:18:08;;;;;;;3.22;1.33;;;18.60;55.30;;;;;;5087802;28;20051;-66
2022/01/13 09:20:38;;;;;;;6.15;1.25;;;18.60;55.30;;;;;;5082665;28;20093;-65
2022/01/13 09:23:06;;;;;;;8.10;0.55;;;18.50;55.20;;;;;;5086322;28;20087;-66
2022/01/13 09:25:33;;;;;;;3.83;0.50;;;18.50;55.10;;;;;;5084573;28;20144;-66
2022/01/13 09:28:01;;;;;;;3.97;1.17;;;18.50;55.10;;;;;;5082434;28;20058;-65
2022/01/13 09:30:28;;;;;;;3.38;0.85;;;18.50;55.10;;;;;;5082195;28;20040;-67
2022/01/13 09:32:56;;;;;;;6.80;0.77;;;18.50;55.00;;;;;;5087998;28;20093;-65
2022/01/13 09:35:23;;;;;;;7.65;2.33;;;18.50;55.00;;;;;;5083185;28;20086;-66
2022/01/13 09:37:52;;;;;;;6.88;0.73;;;18.50;54.90;;;;;;5088671;28;20063;-66
2022/01/13 09:40:19;;;;;;;4.35;1.92;;;18.50;54.90;;;;;;5083267;28;20032;-65
2022/01/13 09:42:46;;;;;;;3.50;0.73;;;18.50;54.80;;;;;;5084248;28;20032;-62
2022/01/13 09:45:15;;;;;;;5.38;1.05;;;18.50;54.80;;;;;;5084168;28;20573;-66
2022/01/13 09:47:44;;;;;;;5.78;1.10;;;18.40;54.60;;;;;;5084746;28;20135;-66
2022/01/13 09:50:14;;;;;;;6.97;0.82;;;18.40;54.60;;;;;;5086041;28;20036;-66
2022/01/13 09:52:43;;;;;;;9.45;1.08;;;18.40;54.50;;;;;;5090282;28;20040;-64
2022/01/13 09:55:13;;;;;;;4.15;0.60;;;18.40;54.40;;;;;;5084174;28;20062;-66
2022/01/13 09:57:42;;;;;;;5.70;0.98;;;18.40;54.40;;;;;;5082209;28;20079;-66
2022/01/13 10:00:13;;;;;;;8.80;1.83;;;18.40;54.30;;;;;;5083200;28;20039;-66
2022/01/13 10:02:40;;;;;;;11.10;2.60;;;18.40;54.30;;;;;;5087202;28;20459;-64
2022/01/13 10:05:08;;;;;;;7.72;1.75;;;18.40;54.30;;;;;;5084547;28;20040;-65
2022/01/13 10:07:37;;;;;;;7.18;0.82;;;18.40;54.20;;;;;;5085673;28;20109;-64
2022/01/13 10:10:07;;;;;;;8.18;1.90;;;18.30;54.10;;;;;;5082600;28;20035;-65
2022/01/13 10:12:38;;;;;;;6.70;1.00;;;18.30;54.10;;;;;;5077699;28;20121;-65
2022/01/13 10:17:53;;;;;;;5.40;1.75;;;18.30;54.10;;;;;;5080896;28;20044;-66
2022/01/13 10:20:23;;;;;;;3.55;2.05;;;18.30;54.00;;;;;;5082417;28;20048;-65
2022/01/13 10:22:50;;;;;;;4.80;0.68;;;18.30;54.00;;;;;;5086657;28;20168;-65
2022/01/13 10:25:33;;;;;;;3.65;1.33;;;18.30;54.00;;;;;;5065978;28;20043;-66
2022/01/13 10:28:14;;;;;;;3.85;0.90;;;18.30;53.80;;;;;;5085116;28;20059;-65
2022/01/13 10:30:42;;;;;;;3.72;1.52;;;18.30;53.80;;;;;;5081948;28;20044;-64
2022/01/13 10:33:21;;;;;;;4.65;1.00;;;18.20;53.80;;;;;;5089079;28;20048;-64
2022/01/13 10:35:49;;;;;;;4.40;1.45;;;18.30;53.80;;;;;;5087602;28;20047;-65
2022/01/13 10:38:17;;;;;;;2.88;0.82;;;18.20;53.70;;;;;;5088026;28;20036;-65
2022/01/13 10:40:47;;;;;;;7.05;1.85;;;18.20;53.70;;;;;;5087447;28;20040;-65
2022/01/13 10:43:21;;;;;;;3.53;0.98;;;18.20;53.60;;;;;;5087404;28;20115;-64
2022/01/13 10:45:50;;;;;;;7.53;1.00;;;18.20;53.60;;;;;;5087885;28;20135;-65
2022/01/13 10:48:21;;;;;;;1.33;1.15;;;18.20;53.60;;;;;;5089299;28;20118;-64
2022/01/13 10:50:52;;;;;;;4.40;1.27;;;18.20;53.50;;;;;;5087770;28;20044;-65
2022/01/13 10:53:23;;;;;;;4.68;0.95;;;18.20;53.50;;;;;;5087476;28;20067;-65
2022/01/13 10:55:53;;;;;;;4.07;1.08;;;18.20;53.40;;;;;;5089278;28;20056;-65
2022/01/13 10:58:26;;;;;;;3.70;0.85;;;18.20;53.40;;;;;;5087033;28;20412;-65
2022/01/13 11:00:54;;;;;;;5.13;1.88;;;18.20;53.40;;;;;;5081946;28;20040;-65
2022/01/13 11:03:24;;;;;;;1.77;0.95;;;18.10;53.30;;;;;;5087252;28;20415;-65
2022/01/13 11:05:52;;;;;;;4.70;1.13;;;18.20;53.30;;;;;;5087301;28;20101;-65
2022/01/13 11:08:23;;;;;;;1.17;0.30;;;18.20;53.20;;;;;;5086653;28;20044;-65
2022/01/13 11:10:51;;;;;;;3.58;0.82;;;18.20;53.10;;;;;;5096722;28;20051;-66
2022/01/13 11:13:20;;;;;;;3.80;0.95;;;18.20;53.10;;;;;;5087008;28;20043;-66
2022/01/13 11:15:53;;;;;;;2.05;1.23;;;18.20;53.00;;;;;;5068853;28;20155;-66
2022/01/13 11:18:21;;;;;;;3.05;0.90;;;18.20;52.90;;;;;;5086956;28;20067;-66
2022/01/13 11:20:49;;;;;;;2.72;1.00;;;18.20;52.90;;;;;;5088053;28;20055;-66
2022/01/13 11:23:18;;;;;;;6.28;1.05;;;18.20;52.80;;;;;;5088032;28;20051;-64
2022/01/13 11:25:47;;;;;;;3.90;1.48;;;18.20;53.40;;;;;;5087008;28;20087;-66
2022/01/13 11:28:15;;;;;;;2.83;0.70;;;18.20;52.70;;;;;;5087204;28;20044;-65
2022/01/13 11:30:42;;;;;;;3.78;1.85;;;18.20;52.70;;;;;;5086552;28;20047;-65
2022/01/13 11:33:11;;;;;;;3.58;1.70;;;18.20;52.60;;;;;;5085907;28;20119;-65
2022/01/13 11:35:44;;;;;;;3.72;1.00;;;18.20;52.60;;;;;;5087270;28;20043;-65
2022/01/13 11:38:13;;;;;;;2.53;1.38;;;18.20;52.60;;;;;;5087672;28;20052;-65
2022/01/13 11:40:43;;;;;;;1.88;0.70;;;18.20;52.60;;;;;;5087567;28;20513;-65
2022/01/13 11:43:24;;;;;;;3.80;0.90;;;18.20;52.50;;;;;;5083882;28;20078;-65
2022/01/13 11:45:52;;;;;;;1.70;1.15;;;18.20;52.40;;;;;;5081896;28;20048;-65
2022/01/13 11:48:24;;;;;;;2.25;0.95;;;18.20;52.40;;;;;;5079768;28;20039;-65
2022/01/13 11:51:01;;;;;;;3.80;1.63;;;18.20;52.20;;;;;;5086872;28;20097;-65
2022/01/13 11:53:31;;;;;;;3.45;1.10;;;18.20;52.20;;;;;;5086487;28;20515;-65
2022/01/13 11:56:03;;;;;;;1.83;1.20;;;18.20;52.20;;;;;;5088648;28;20540;-66
2022/01/13 11:58:39;;;;;;;2.75;0.82;;;18.20;52.20;;;;;;5087195;28;20867;-65
2022/01/13 12:01:17;;;;;;;2.50;0.93;;;18.20;52.20;;;;;;5086262;28;20484;-65
2022/01/13 12:03:49;;;;;;;1.67;1.15;;;18.20;52.20;;;;;;5086361;28;20458;-65
2022/01/13 12:06:42;;;;;;;1.73;1.38;;;18.20;52.10;;;;;;5070516;28;20054;-65
2022/01/13 12:09:11;;;;;;;2.05;0.90;;;18.20;52.10;;;;;;5077543;28;20044;-65
2022/01/13 12:11:45;;;;;;;4.65;1.45;;;18.10;52.00;;;;;;5087133;28;20040;-66
2022/01/13 12:14:42;;;;;;;3.30;1.45;;;18.20;52.10;;;;;;5087338;28;20048;-67
2022/01/13 12:17:23;;;;;;;1.35;1.10;;;18.20;52.00;;;;;;5083391;28;20048;-64
2022/01/13 12:20:01;;;;;;;3.63;1.13;;;18.10;51.90;;;;;;5086596;28;20047;-64
2022/01/13 12:22:47;;;;;;;2.45;1.02;;;18.20;52.00;;;;;;5086320;28;20135;-64
2022/01/13 12:25:19;;;;;;;;;;;18.20;52.00;;;;;;5084158;28;20039;-64
2022/01/13 12:27:49;;;;;;;1.75;1.17;;;18.20;52.00;;;;;;5089306;28;20025;-64
2022/01/13 12:30:18;;;;;;;1.10;1.00;;;18.10;52.00;;;;;;5067178;28;20468;-64
2022/01/13 12:32:48;;;;;;;1.77;1.42;;;18.20;51.90;;;;;;5087431;28;20040;-64
2022/01/13 12:35:31;;;;;;;2.03;1.63;;;18.20;51.90;;;;;;5086490;28;20129;-65
2022/01/13 12:38:03;;;;;;;2.80;1.20;;;18.30;51.70;;;;;;5087514;28;20212;-65
2022/01/13 12:40:39;;;;;;;1.30;0.80;;;18.20;51.60;;;;;;5086382;28;20062;-64
2022/01/13 12:43:21;;;;;;;;;;;18.30;51.50;;;;;;5086234;28;20042;-65
2022/01/13 12:45:50;;;;;;;5.97;1.73;;;18.20;51.50;;;;;;5078790;28;20450;-64
2022/01/13 12:48:17;;;;;;;5.88;1.00;;;18.20;51.50;;;;;;5086082;28;20070;-66
2022/01/13 12:50:48;;;;;;;8.95;1.77;;;18.30;51.40;;;;;;5085910;28;20036;-67
2022/01/13 12:53:18;;;;;;;5.07;2.22;;;18.30;51.30;;;;;;5085694;28;20040;-64
2022/01/13 12:55:53;;;;;;;3.10;1.52;;;18.30;51.20;;;;;;5086826;28;20048;-65
2022/01/13 12:58:21;;;;;;;15.13;2.88;;;18.30;51.20;;;;;;5067098;28;20443;-65
2022/01/13 13:00:49;;;;;;;14.43;2.25;;;18.30;51.10;;;;;;5081429;28;20032;-64
2022/01/13 13:03:18;;;;;;;7.97;1.80;;;18.40;51.10;;;;;;5081563;28;20039;-65
2022/01/13 13:05:49;;;;;;;8.23;1.88;;;18.40;51.00;;;;;;5083760;28;20051;-65
2022/01/13 13:08:19;;;;;;;5.97;1.80;;;18.40;50.90;;;;;;5072803;28;20408;-65
2022/01/13 13:10:49;;;;;;;4.97;1.55;;;18.40;50.80;;;;;;5066683;28;20044;-65
2022/01/13 13:13:19;;;;;;;2.38;1.67;;;18.50;50.70;;;;;;5085272;28;20068;-65
2022/01/13 13:15:58;;;;;;;15.48;2.03;;;18.50;50.60;;;;;;5085208;28;20040;-65